Richland, Mississippi
Current Conditions -  °F | °C
As of 6:54 AM on Monday 22 Dec 2014 (Local Time) from KJAN Reporting Station
Haze Haze  
Wind Chill: 53°   Ceiling: 300
Heat Index: 53°   Visibility: 2.5mi
Dew Point: 52°   Wind: 7mph
Humidity: 96%   Direction: 140°SE
Pressure: 29.85"   Gusts: NA
Location:  32.2326°N, 90.165°W
Report Text: KJAN 221254Z 14006KT 2 1/2SM BR OVC003 12/11 A2985 RMK AO2 SLP106 T01170111
Loading
Personal Weather Stations






























Interactive Weather Map New forecast layout! Learn more

10-Day Weather Forecast

Advertisements
Track Severe Weather on mobile